sensor_id;sensor_type;location;lat;lon;timestamp;pressure;altitude;pressure_sealevel;temperature;humidity
19208;BME280;9737;59.466;18.036;2023-03-14T00:01:55;98555.75;;;5.26;73.54
19208;BME280;9737;59.466;18.036;2023-03-14T00:04:24;98570.47;;;5.29;73.20
19208;BME280;9737;59.466;18.036;2023-03-14T00:06:52;98589.41;;;5.34;73.40
19208;BME280;9737;59.466;18.036;2023-03-14T00:09:20;98579.94;;;5.32;73.48
19208;BME280;9737;59.466;18.036;2023-03-14T00:11:48;98581.59;;;5.33;73.30
19208;BME280;9737;59.466;18.036;2023-03-14T00:14:16;98569.41;;;5.32;73.77
19208;BME280;9737;59.466;18.036;2023-03-14T00:16:45;98558.28;;;5.28;73.68
19208;BME280;9737;59.466;18.036;2023-03-14T00:19:13;98565.34;;;5.27;73.48
19208;BME280;9737;59.466;18.036;2023-03-14T00:21:42;98579.94;;;5.32;73.39
19208;BME280;9737;59.466;18.036;2023-03-14T00:24:10;98601.59;;;5.35;73.70
19208;BME280;9737;59.466;18.036;2023-03-14T00:26:38;98598.13;;;5.35;73.71
19208;BME280;9737;59.466;18.036;2023-03-14T00:29:06;98591.19;;;5.34;73.63
19208;BME280;9737;59.466;18.036;2023-03-14T00:31:34;98595.50;;;5.35;73.74
19208;BME280;9737;59.466;18.036;2023-03-14T00:34:02;98609.41;;;5.37;74.28
19208;BME280;9737;59.466;18.036;2023-03-14T00:36:30;98604.13;;;5.37;74.20
19208;BME280;9737;59.466;18.036;2023-03-14T00:38:59;98604.13;;;5.37;74.37
19208;BME280;9737;59.466;18.036;2023-03-14T00:41:27;98574.09;;;5.28;74.31
19208;BME280;9737;59.466;18.036;2023-03-14T00:43:55;98615.38;;;5.39;74.09
19208;BME280;9737;59.466;18.036;2023-03-14T00:46:23;98643.88;;;5.45;74.16
19208;BME280;9737;59.466;18.036;2023-03-14T00:48:51;98596.59;;;5.32;74.87
19208;BME280;9737;59.466;18.036;2023-03-14T00:51:19;98616.34;;;5.38;75.00
19208;BME280;9737;59.466;18.036;2023-03-14T00:53:47;98608.44;;;5.38;74.60
19208;BME280;9737;59.466;18.036;2023-03-14T00:56:17;98607.47;;;5.39;74.91
19208;BME280;9737;59.466;18.036;2023-03-14T00:58:44;98635.25;;;5.43;74.70
19208;BME280;9737;59.466;18.036;2023-03-14T01:01:14;98612.03;;;5.37;75.13
19208;BME280;9737;59.466;18.036;2023-03-14T01:03:43;98601.84;;;5.32;74.52
19208;BME280;9737;59.466;18.036;2023-03-14T01:06:12;98594.91;;;5.31;74.26
19208;BME280;9737;59.466;18.036;2023-03-14T01:08:41;98608.69;;;5.35;74.45
19208;BME280;9737;59.466;18.036;2023-03-14T01:11:10;98617.19;;;5.38;75.24
19208;BME280;9737;59.466;18.036;2023-03-14T01:13:41;98618.50;;;5.33;74.68
19208;BME280;9737;59.466;18.036;2023-03-14T01:16:10;98624.97;;;5.40;74.67
19208;BME280;9737;59.466;18.036;2023-03-14T01:18:42;98631.19;;;5.39;74.93
19208;BME280;9737;59.466;18.036;2023-03-14T01:21:12;98641.38;;;5.43;75.12
19208;BME280;9737;59.466;18.036;2023-03-14T01:23:41;98646.75;;;5.42;74.70
19208;BME280;9737;59.466;18.036;2023-03-14T01:26:10;98642.31;;;5.42;74.88
19208;BME280;9737;59.466;18.036;2023-03-14T01:28:38;98644.97;;;5.42;74.71
19208;BME280;9737;59.466;18.036;2023-03-14T01:31:09;98646.63;;;5.43;74.90
19208;BME280;9737;59.466;18.036;2023-03-14T01:33:37;98635.63;;;5.38;75.66
19208;BME280;9737;59.466;18.036;2023-03-14T01:36:07;98623.53;;;5.36;75.25
19208;BME280;9737;59.466;18.036;2023-03-14T01:38:37;98643.28;;;5.41;75.41
19208;BME280;9737;59.466;18.036;2023-03-14T01:41:06;98645.81;;;5.43;75.12
19208;BME280;9737;59.466;18.036;2023-03-14T01:43:34;98654.41;;;5.45;75.07
19208;BME280;9737;59.466;18.036;2023-03-14T01:46:20;98673.38;;;5.50;75.62
19208;BME280;9737;59.466;18.036;2023-03-14T01:48:54;98675.16;;;5.49;76.02
19208;BME280;9737;59.466;18.036;2023-03-14T01:51:26;98665.81;;;5.45;75.89
19208;BME280;9737;59.466;18.036;2023-03-14T01:53:59;98672.75;;;5.46;75.18
19208;BME280;9737;59.466;18.036;2023-03-14T01:56:30;98675.25;;;5.48;75.22
19208;BME280;9737;59.466;18.036;2023-03-14T01:58:59;98625.22;;;5.37;75.67
19208;BME280;9737;59.466;18.036;2023-03-14T02:01:30;98650.47;;;5.39;75.74
19208;BME280;9737;59.466;18.036;2023-03-14T02:04:00;98687.28;;;5.52;75.35
19208;BME280;9737;59.466;18.036;2023-03-14T02:06:33;98716.28;;;5.52;75.94
19208;BME280;9737;59.466;18.036;2023-03-14T02:09:03;98728.97;;;5.58;75.85
19208;BME280;9737;59.466;18.036;2023-03-14T02:11:31;98721.88;;;5.58;76.30
19208;BME280;9737;59.466;18.036;2023-03-14T02:13:59;98736.63;;;5.61;75.94
19208;BME280;9737;59.466;18.036;2023-03-14T02:16:27;98748.72;;;5.64;75.92
19208;BME280;9737;59.466;18.036;2023-03-14T02:18:56;98743.47;;;5.64;75.67
19208;BME280;9737;59.466;18.036;2023-03-14T02:21:35;98752.91;;;5.66;76.47
19208;BME280;9737;59.466;18.036;2023-03-14T02:24:09;98757.22;;;5.67;75.75
19208;BME280;9737;59.466;18.036;2023-03-14T02:26:43;98778.81;;;5.72;76.26
19208;BME280;9737;59.466;18.036;2023-03-14T02:29:14;98781.56;;;5.71;76.56
19208;BME280;9737;59.466;18.036;2023-03-14T02:31:42;98784.06;;;5.72;76.69
19208;BME280;9737;59.466;18.036;2023-03-14T02:34:19;98792.56;;;5.76;76.04
19208;BME280;9737;59.466;18.036;2023-03-14T02:36:47;98798.81;;;5.75;76.55
19208;BME280;9737;59.466;18.036;2023-03-14T02:39:20;98791.03;;;5.73;76.34
19208;BME280;9737;59.466;18.036;2023-03-14T02:41:49;98788.50;;;5.72;76.32
19208;BME280;9737;59.466;18.036;2023-03-14T02:44:18;98775.69;;;5.67;76.52
19208;BME280;9737;59.466;18.036;2023-03-14T02:46:46;98792.94;;;5.71;76.24
19208;BME280;9737;59.466;18.036;2023-03-14T02:49:14;98774.25;;;5.63;76.28
19208;BME280;9737;59.466;18.036;2023-03-14T02:51:43;98791.03;;;5.73;76.54
19208;BME280;9737;59.466;18.036;2023-03-14T02:54:13;98803.25;;;5.74;76.65
19208;BME280;9737;59.466;18.036;2023-03-14T02:56:41;98820.53;;;5.78;76.53
19208;BME280;9737;59.466;18.036;2023-03-14T02:59:09;98816.19;;;5.77;76.99
19208;BME280;9737;59.466;18.036;2023-03-14T03:01:38;98815.34;;;5.77;76.90
19208;BME280;9737;59.466;18.036;2023-03-14T03:04:06;98847.16;;;5.86;76.48
19208;BME280;9737;59.466;18.036;2023-03-14T03:06:34;98855.06;;;5.86;77.11
19208;BME280;9737;59.466;18.036;2023-03-14T03:09:02;98852.53;;;5.85;77.13
19208;BME280;9737;59.466;18.036;2023-03-14T03:11:30;98862.03;;;5.87;77.12
19208;BME280;9737;59.466;18.036;2023-03-14T03:13:59;98857.69;;;5.86;76.88
19208;BME280;9737;59.466;18.036;2023-03-14T03:16:27;98858.66;;;5.85;76.83
19208;BME280;9737;59.466;18.036;2023-03-14T03:18:56;98856.97;;;5.84;76.54
19208;BME280;9737;59.466;18.036;2023-03-14T03:21:24;98847.28;;;5.85;77.04
19208;BME280;9737;59.466;18.036;2023-03-14T03:23:52;98846.69;;;5.81;77.17
19208;BME280;9737;59.466;18.036;2023-03-14T03:26:20;98838.75;;;5.81;77.25
19208;BME280;9737;59.466;18.036;2023-03-14T03:28:50;98838.25;;;5.76;77.59
19208;BME280;9737;59.466;18.036;2023-03-14T03:31:18;98844.75;;;5.83;76.80
19208;BME280;9737;59.466;18.036;2023-03-14T03:33:46;98841.41;;;5.81;77.51
19208;BME280;9737;59.466;18.036;2023-03-14T03:36:15;98843.09;;;5.82;77.39
19208;BME280;9737;59.466;18.036;2023-03-14T03:38:43;98826.75;;;5.77;77.39
19208;BME280;9737;59.466;18.036;2023-03-14T03:41:10;98812.97;;;5.74;77.41
19208;BME280;9737;59.466;18.036;2023-03-14T03:43:38;98798.00;;;5.63;77.25
19208;BME280;9737;59.466;18.036;2023-03-14T03:46:07;98799.06;;;5.72;77.00
19208;BME280;9737;59.466;18.036;2023-03-14T03:48:35;98816.44;;;5.74;77.10
19208;BME280;9737;59.466;18.036;2023-03-14T03:51:04;98813.94;;;5.73;77.76
19208;BME280;9737;59.466;18.036;2023-03-14T03:53:33;98826.03;;;5.75;77.46
19208;BME280;9737;59.466;18.036;2023-03-14T03:56:01;98808.78;;;5.71;77.53
19208;BME280;9737;59.466;18.036;2023-03-14T03:58:29;98817.41;;;5.73;77.48
19208;BME280;9737;59.466;18.036;2023-03-14T04:00:57;98825.06;;;5.76;77.45
19208;BME280;9737;59.466;18.036;2023-03-14T04:03:25;98840.78;;;5.78;77.55
19208;BME280;9737;59.466;18.036;2023-03-14T04:06:00;98840.69;;;5.79;77.63
19208;BME280;9737;59.466;18.036;2023-03-14T04:08:29;98819.09;;;5.74;77.62
19208;BME280;9737;59.466;18.036;2023-03-14T04:11:00;98817.41;;;5.73;77.90
19208;BME280;9737;59.466;18.036;2023-03-14T04:13:28;98818.38;;;5.72;77.57
19208;BME280;9737;59.466;18.036;2023-03-14T04:15:56;98799.31;;;5.69;77.52
19208;BME280;9737;59.466;18.036;2023-03-14T04:18:25;98776.69;;;5.55;77.65
19208;BME280;9737;59.466;18.036;2023-03-14T04:20:54;98769.47;;;5.57;78.05
19208;BME280;9737;59.466;18.036;2023-03-14T04:23:23;98753.66;;;5.57;77.92
19208;BME280;9737;59.466;18.036;2023-03-14T04:25:51;98746.84;;;5.54;77.86
19208;BME280;9737;59.466;18.036;2023-03-14T04:28:21;98742.66;;;5.52;78.32
19208;BME280;9737;59.466;18.036;2023-03-14T04:30:49;98754.75;;;5.54;78.14
19208;BME280;9737;59.466;18.036;2023-03-14T04:33:16;98738.34;;;5.51;77.64
19208;BME280;9737;59.466;18.036;2023-03-14T04:35:45;98771.16;;;5.58;78.16
19208;BME280;9737;59.466;18.036;2023-03-14T04:38:13;98748.63;;;5.54;77.64
19208;BME280;9737;59.466;18.036;2023-03-14T04:40:41;98768.53;;;5.58;78.01
19208;BME280;9737;59.466;18.036;2023-03-14T04:43:10;98751.16;;;5.55;78.49
19208;BME280;9737;59.466;18.036;2023-03-14T04:45:42;98713.13;;;5.47;77.79
19208;BME280;9737;59.466;18.036;2023-03-14T04:48:12;98752.22;;;5.53;78.50
19208;BME280;9737;59.466;18.036;2023-03-14T04:50:40;98746.97;;;5.53;78.03
19208;BME280;9737;59.466;18.036;2023-03-14T04:53:08;98762.53;;;5.56;78.25
19208;BME280;9737;59.466;18.036;2023-03-14T04:55:35;98756.53;;;5.54;77.65
19208;BME280;9737;59.466;18.036;2023-03-14T04:58:03;98754.75;;;5.54;78.42
19208;BME280;9737;59.466;18.036;2023-03-14T05:00:31;98757.25;;;5.56;77.74
19208;BME280;9737;59.466;18.036;2023-03-14T05:03:01;98753.91;;;5.54;77.97
19208;BME280;9737;59.466;18.036;2023-03-14T05:05:29;98753.06;;;5.53;78.45
19208;BME280;9737;59.466;18.036;2023-03-14T05:07:57;98734.94;;;5.49;78.06
19208;BME280;9737;59.466;18.036;2023-03-14T05:10:25;98718.53;;;5.45;78.51
19208;BME280;9737;59.466;18.036;2023-03-14T05:12:53;98748.88;;;5.51;78.07
19208;BME280;9737;59.466;18.036;2023-03-14T05:15:20;98713.38;;;5.44;78.70
19208;BME280;9737;59.466;18.036;2023-03-14T05:17:48;98725.59;;;5.45;78.74
19208;BME280;9737;59.466;18.036;2023-03-14T05:20:18;98742.75;;;5.50;77.91
19208;BME280;9737;59.466;18.036;2023-03-14T05:22:46;98722.13;;;5.44;78.73
19208;BME280;9737;59.466;18.036;2023-03-14T05:25:14;98724.66;;;5.46;77.91
19208;BME280;9737;59.466;18.036;2023-03-14T05:27:42;98728.25;;;5.45;78.07
19208;BME280;9737;59.466;18.036;2023-03-14T05:30:10;98719.63;;;5.43;78.78
19208;BME280;9737;59.466;18.036;2023-03-14T05:32:38;98704.06;;;5.40;78.40
19208;BME280;9737;59.466;18.036;2023-03-14T05:35:07;98689.31;;;5.37;78.42
19208;BME280;9737;59.466;18.036;2023-03-14T05:37:36;98713.63;;;5.41;78.46
19208;BME280;9737;59.466;18.036;2023-03-14T05:40:05;98707.66;;;5.39;78.41
19208;BME280;9737;59.466;18.036;2023-03-14T05:42:35;98704.06;;;5.40;78.45
19208;BME280;9737;59.466;18.036;2023-03-14T05:45:03;98714.47;;;5.41;78.18
19208;BME280;9737;59.466;18.036;2023-03-14T05:47:31;98697.94;;;5.39;78.24
19208;BME280;9737;59.466;18.036;2023-03-14T05:49:59;98701.66;;;5.37;78.35
19208;BME280;9737;59.466;18.036;2023-03-14T05:52:27;98680.09;;;5.32;78.81
19208;BME280;9737;59.466;18.036;2023-03-14T05:54:56;98680.09;;;5.32;77.97
19208;BME280;9737;59.466;18.036;2023-03-14T05:57:24;98686.09;;;5.34;78.28
19208;BME280;9737;59.466;18.036;2023-03-14T05:59:52;98688.97;;;5.31;78.52
19208;BME280;9737;59.466;18.036;2023-03-14T06:02:20;98699.88;;;5.37;78.58
19208;BME280;9737;59.466;18.036;2023-03-14T06:04:47;98685.25;;;5.33;78.97
19208;BME280;9737;59.466;18.036;2023-03-14T06:07:15;98702.50;;;5.37;78.85
19208;BME280;9737;59.466;18.036;2023-03-14T06:09:43;98715.44;;;5.40;78.55
19208;BME280;9737;59.466;18.036;2023-03-14T06:12:13;98723.22;;;5.42;78.07
19208;BME280;9737;59.466;18.036;2023-03-14T06:14:40;98735.19;;;5.46;78.62
19208;BME280;9737;59.466;18.036;2023-03-14T06:17:08;98692.81;;;5.26;78.31
19208;BME280;9737;59.466;18.036;2023-03-14T06:19:36;98736.88;;;5.47;78.34
19208;BME280;9737;59.466;18.036;2023-03-14T06:22:04;98756.91;;;5.49;78.89
19208;BME280;9737;59.466;18.036;2023-03-14T06:24:32;98767.94;;;5.54;78.73
19208;BME280;9737;59.466;18.036;2023-03-14T06:26:59;98774.03;;;5.55;78.57
19208;BME280;9737;59.466;18.036;2023-03-14T06:29:30;98783.63;;;5.56;78.47
19208;BME280;9737;59.466;18.036;2023-03-14T06:31:58;98779.31;;;5.55;78.79
19208;BME280;9737;59.466;18.036;2023-03-14T06:34:26;98770.56;;;5.54;78.22
19208;BME280;9737;59.466;18.036;2023-03-14T06:36:54;98733.53;;;5.45;79.06
19208;BME280;9737;59.466;18.036;2023-03-14T06:39:22;98733.41;;;5.46;78.20
19208;BME280;9737;59.466;18.036;2023-03-14T06:41:50;98747.41;;;5.47;78.35
19208;BME280;9737;59.466;18.036;2023-03-14T06:44:17;98733.53;;;5.45;78.59
19208;BME280;9737;59.466;18.036;2023-03-14T06:46:47;98757.75;;;5.50;78.81
19208;BME280;9737;59.466;18.036;2023-03-14T06:49:14;98725.97;;;5.40;78.76
19208;BME280;9737;59.466;18.036;2023-03-14T06:51:42;98749.09;;;5.48;78.96
19208;BME280;9737;59.466;18.036;2023-03-14T06:54:11;98769.00;;;5.52;78.23
19208;BME280;9737;59.466;18.036;2023-03-14T06:56:38;98762.19;;;5.49;79.15
19208;BME280;9737;59.466;18.036;2023-03-14T06:59:06;98761.22;;;5.50;79.04
19208;BME280;9737;59.466;18.036;2023-03-14T07:01:34;98765.53;;;5.51;78.41
19208;BME280;9737;59.466;18.036;2023-03-14T07:04:04;98759.44;;;5.51;78.54
19208;BME280;9737;59.466;18.036;2023-03-14T07:06:33;98737.84;;;5.46;78.41
19208;BME280;9737;59.466;18.036;2023-03-14T07:09:01;98768.06;;;5.53;78.85
19208;BME280;9737;59.466;18.036;2023-03-14T07:11:29;98774.03;;;5.55;78.28
19208;BME280;9737;59.466;18.036;2023-03-14T07:13:57;98818.84;;;5.66;78.89
19208;BME280;9737;59.466;18.036;2023-03-14T07:16:25;98855.28;;;5.72;79.21
19208;BME280;9737;59.466;18.036;2023-03-14T07:18:55;98914.78;;;5.87;79.25
19208;BME280;9737;59.466;18.036;2023-03-14T07:21:24;98952.72;;;5.98;78.91
19208;BME280;9737;59.466;18.036;2023-03-14T07:23:54;98971.91;;;6.00;78.69
19208;BME280;9737;59.466;18.036;2023-03-14T07:26:21;98960.63;;;5.98;79.03
19208;BME280;9737;59.466;18.036;2023-03-14T07:28:49;98939.03;;;5.93;78.82
19208;BME280;9737;59.466;18.036;2023-03-14T07:31:17;98868.38;;;5.74;78.88
19208;BME280;9737;59.466;18.036;2023-03-14T07:33:45;98780.28;;;5.54;78.70
19208;BME280;9737;59.466;18.036;2023-03-14T07:36:13;98688.13;;;5.30;78.37
19208;BME280;9737;59.466;18.036;2023-03-14T07:38:43;98577.97;;;5.02;78.59
19208;BME280;9737;59.466;18.036;2023-03-14T07:41:10;98558.22;;;4.96;79.10
19208;BME280;9737;59.466;18.036;2023-03-14T07:43:39;98526.50;;;4.86;78.47
19208;BME280;9737;59.466;18.036;2023-03-14T07:46:07;98506.50;;;4.84;78.91
19208;BME280;9737;59.466;18.036;2023-03-14T07:48:35;98440.13;;;4.69;79.12
19208;BME280;9737;59.466;18.036;2023-03-14T07:51:04;98479.00;;;4.77;78.55
19208;BME280;9737;59.466;18.036;2023-03-14T07:53:32;98510.81;;;4.85;78.81
19208;BME280;9737;59.466;18.036;2023-03-14T07:56:01;98580.47;;;5.03;78.47
19208;BME280;9737;59.466;18.036;2023-03-14T07:58:29;98614.97;;;5.11;78.76
19208;BME280;9737;59.466;18.036;2023-03-14T08:00:58;98670.06;;;5.25;79.13
19208;BME280;9737;59.466;18.036;2023-03-14T08:03:26;98681.31;;;5.27;78.70
19208;BME280;9737;59.466;18.036;2023-03-14T08:05:54;98651.00;;;5.22;78.93
19208;BME280;9737;59.466;18.036;2023-03-14T08:08:22;98613.28;;;5.10;78.48
19208;BME280;9737;59.466;18.036;2023-03-14T08:10:50;98600.22;;;5.09;78.75
19208;BME280;9737;59.466;18.036;2023-03-14T08:13:19;98602.75;;;5.10;78.35
19208;BME280;9737;59.466;18.036;2023-03-14T08:15:48;98605.38;;;5.10;78.87
19208;BME280;9737;59.466;18.036;2023-03-14T08:18:17;98616.63;;;5.12;78.82
19208;BME280;9737;59.466;18.036;2023-03-14T08:20:45;98597.84;;;5.06;78.72
19208;BME280;9737;59.466;18.036;2023-03-14T08:23:13;98601.91;;;5.10;78.88
19208;BME280;9737;59.466;18.036;2023-03-14T08:25:41;98598.56;;;5.08;78.47
19208;BME280;9737;59.466;18.036;2023-03-14T08:28:09;98663.00;;;5.26;78.51
19208;BME280;9737;59.466;18.036;2023-03-14T08:30:38;98815.63;;;5.63;78.73
19208;BME280;9737;59.466;18.036;2023-03-14T08:33:06;99166.88;;;6.50;78.70
19208;BME280;9737;59.466;18.036;2023-03-14T08:35:34;99365.66;;;7.00;78.97
19208;BME280;9737;59.466;18.036;2023-03-14T08:38:01;99649.66;;;7.69;78.91
19208;BME280;9737;59.466;18.036;2023-03-14T08:40:29;99860.22;;;8.23;78.88
19208;BME280;9737;59.466;18.036;2023-03-14T08:42:57;100299.28;;;9.24;78.70
19208;BME280;9737;59.466;18.036;2023-03-14T08:45:25;100641.06;;;10.12;78.98
19208;BME280;9737;59.466;18.036;2023-03-14T08:47:54;100866.00;;;10.67;78.90
19208;BME280;9737;59.466;18.036;2023-03-14T08:50:22;101018.13;;;11.01;78.70
19208;BME280;9737;59.466;18.036;2023-03-14T08:52:50;101330.06;;;11.77;79.13
19208;BME280;9737;59.466;18.036;2023-03-14T08:55:18;101199.03;;;11.43;79.05
19208;BME280;9737;59.466;18.036;2023-03-14T08:57:46;101135.94;;;11.31;79.03
19208;BME280;9737;59.466;18.036;2023-03-14T09:00:15;101073.00;;;11.16;78.89
19208;BME280;9737;59.466;18.036;2023-03-14T09:02:43;100963.03;;;10.89;78.81
19208;BME280;9737;59.466;18.036;2023-03-14T09:05:13;100798.13;;;10.49;78.92
19208;BME280;9737;59.466;18.036;2023-03-14T09:07:41;100616.06;;;10.02;79.06
19208;BME280;9737;59.466;18.036;2023-03-14T09:10:10;100413.97;;;9.54;78.81
19208;BME280;9737;59.466;18.036;2023-03-14T09:12:38;100242.00;;;9.09;79.27
19208;BME280;9737;59.466;18.036;2023-03-14T09:15:07;100120.25;;;8.80;79.17
19208;BME280;9737;59.466;18.036;2023-03-14T09:17:35;99965.53;;;8.45;79.07
19208;BME280;9737;59.466;18.036;2023-03-14T09:20:03;99948.91;;;8.43;78.79
19208;BME280;9737;59.466;18.036;2023-03-14T09:22:35;99928.88;;;8.38;78.77
19208;BME280;9737;59.466;18.036;2023-03-14T09:25:03;99691.53;;;7.75;78.73
19208;BME280;9737;59.466;18.036;2023-03-14T09:27:31;99618.81;;;7.57;78.59
19208;BME280;9737;59.466;18.036;2023-03-14T09:29:59;99610.88;;;7.57;78.65
19208;BME280;9737;59.466;18.036;2023-03-14T09:32:26;99660.25;;;7.69;78.59
19208;BME280;9737;59.466;18.036;2023-03-14T09:34:54;99578.81;;;7.49;78.67
19208;BME280;9737;59.466;18.036;2023-03-14T09:37:22;99417.09;;;7.07;78.79
19208;BME280;9737;59.466;18.036;2023-03-14T09:39:52;99589.09;;;7.54;78.44
19208;BME280;9737;59.466;18.036;2023-03-14T09:42:21;99740.75;;;7.91;78.29
19208;BME280;9737;59.466;18.036;2023-03-14T09:44:54;99849.09;;;8.18;78.20
19208;BME280;9737;59.466;18.036;2023-03-14T09:47:24;100074.88;;;8.72;78.45
19208;BME280;9737;59.466;18.036;2023-03-14T09:49:53;100220.91;;;9.07;77.92
19208;BME280;9737;59.466;18.036;2023-03-14T09:52:24;100498.41;;;9.75;78.20
19208;BME280;9737;59.466;18.036;2023-03-14T09:54:58;100790.34;;;10.46;78.71
19208;BME280;9737;59.466;18.036;2023-03-14T09:57:28;100997.22;;;10.95;78.19
19208;BME280;9737;59.466;18.036;2023-03-14T10:00:00;101177.19;;;11.38;78.37
19208;BME280;9737;59.466;18.036;2023-03-14T10:02:35;101158.94;;;11.32;78.65
19208;BME280;9737;59.466;18.036;2023-03-14T10:05:07;101152.84;;;11.30;78.59
19208;BME280;9737;59.466;18.036;2023-03-14T10:07:41;100996.25;;;10.96;78.19
19208;BME280;9737;59.466;18.036;2023-03-14T10:10:14;101053.06;;;11.09;78.50
19208;BME280;9737;59.466;18.036;2023-03-14T10:12:45;101066.19;;;11.12;78.05
19208;BME280;9737;59.466;18.036;2023-03-14T10:15:15;100936.09;;;10.80;78.13
19208;BME280;9737;59.466;18.036;2023-03-14T10:17:51;101170.25;;;11.36;78.02
19208;BME280;9737;59.466;18.036;2023-03-14T10:20:30;101045.19;;;11.07;78.29
19208;BME280;9737;59.466;18.036;2023-03-14T10:23:01;100763.59;;;10.35;78.30
19208;BME280;9737;59.466;18.036;2023-03-14T10:25:33;100771.19;;;10.41;77.59
19208;BME280;9737;59.466;18.036;2023-03-14T10:28:03;100678.81;;;10.17;77.95
19208;BME280;9737;59.466;18.036;2023-03-14T10:30:38;100408.00;;;9.51;77.80
19208;BME280;9737;59.466;18.036;2023-03-14T10:33:19;100344.31;;;9.38;77.40
19208;BME280;9737;59.466;18.036;2023-03-14T10:35:52;100203.84;;;8.98;78.19
19208;BME280;9737;59.466;18.036;2023-03-14T10:38:23;100180.91;;;8.97;77.68
19208;BME280;9737;59.466;18.036;2023-03-14T10:40:54;100333.91;;;9.35;78.13
19208;BME280;9737;59.466;18.036;2023-03-14T10:43:26;100488.00;;;9.72;78.04
19208;BME280;9737;59.466;18.036;2023-03-14T10:45:56;100929.81;;;10.81;77.72
19208;BME280;9737;59.466;18.036;2023-03-14T10:48:31;101294.41;;;11.65;77.64
19208;BME280;9737;59.466;18.036;2023-03-14T10:51:05;101299.66;;;11.67;77.53
19208;BME280;9737;59.466;18.036;2023-03-14T10:53:38;101110.72;;;11.23;78.08
19208;BME280;9737;59.466;18.036;2023-03-14T10:56:11;100941.31;;;10.82;77.46
19208;BME280;9737;59.466;18.036;2023-03-14T10:58:41;100743.28;;;10.34;78.16
19208;BME280;9737;59.466;18.036;2023-03-14T11:01:21;100660.53;;;10.13;77.70
19208;BME280;9737;59.466;18.036;2023-03-14T11:03:56;100578.66;;;9.92;77.31
19208;BME280;9737;59.466;18.036;2023-03-14T11:06:29;100603.72;;;10.01;77.35
19208;BME280;9737;59.466;18.036;2023-03-14T11:09:06;100424.38;;;9.57;77.28
19208;BME280;9737;59.466;18.036;2023-03-14T11:11:39;100484.38;;;9.73;76.91
19208;BME280;9737;59.466;18.036;2023-03-14T11:14:18;100401.72;;;9.52;77.19
19208;BME280;9737;59.466;18.036;2023-03-14T11:16:54;100406.94;;;9.53;77.32
19208;BME280;9737;59.466;18.036;2023-03-14T11:19:41;100168.63;;;8.96;77.45
19208;BME280;9737;59.466;18.036;2023-03-14T11:22:20;100100.94;;;8.78;77.27
19208;BME280;9737;59.466;18.036;2023-03-14T11:24:55;100028.88;;;8.60;76.80
19208;BME280;9737;59.466;18.036;2023-03-14T11:27:31;99961.06;;;8.45;77.04
19208;BME280;9737;59.466;18.036;2023-03-14T11:30:06;99967.00;;;8.49;76.94
19208;BME280;9737;59.466;18.036;2023-03-14T11:32:45;99901.06;;;8.31;76.81
19208;BME280;9737;59.466;18.036;2023-03-14T11:35:17;99945.28;;;8.44;76.74
19208;BME280;9737;59.466;18.036;2023-03-14T11:37:52;100024.41;;;8.61;76.49
19208;BME280;9737;59.466;18.036;2023-03-14T11:40:23;99940.94;;;8.43;76.51
19208;BME280;9737;59.466;18.036;2023-03-14T11:42:59;99845.63;;;8.17;76.56
19208;BME280;9737;59.466;18.036;2023-03-14T11:45:32;99788.22;;;8.05;76.67
19208;BME280;9737;59.466;18.036;2023-03-14T11:48:17;99788.22;;;8.05;76.47
19208;BME280;9737;59.466;18.036;2023-03-14T11:50:52;99851.53;;;8.21;76.87
19208;BME280;9737;59.466;18.036;2023-03-14T11:53:23;99711.13;;;7.86;76.35
19208;BME280;9737;59.466;18.036;2023-03-14T11:55:53;99648.59;;;7.72;76.61
19208;BME280;9737;59.466;18.036;2023-03-14T11:58:26;99610.66;;;7.60;76.51
19208;BME280;9737;59.466;18.036;2023-03-14T12:00:56;99471.25;;;7.26;76.16
19208;BME280;9737;59.466;18.036;2023-03-14T12:03:29;99417.47;;;7.14;76.60
19208;BME280;9737;59.466;18.036;2023-03-14T12:06:04;99469.47;;;7.26;76.51
19208;BME280;9737;59.466;18.036;2023-03-14T12:08:47;99333.66;;;6.92;76.45
19208;BME280;9737;59.466;18.036;2023-03-14T12:11:21;99288.69;;;6.81;76.11
19208;BME280;9737;59.466;18.036;2023-03-14T12:13:53;99290.38;;;6.82;75.98
19208;BME280;9737;59.466;18.036;2023-03-14T12:16:31;99242.94;;;6.69;75.78
19208;BME280;9737;59.466;18.036;2023-03-14T12:19:24;99188.38;;;6.57;76.28
19208;BME280;9737;59.466;18.036;2023-03-14T12:21:55;99159.91;;;6.49;75.75
19208;BME280;9737;59.466;18.036;2023-03-14T12:24:27;99102.13;;;6.34;75.76
19208;BME280;9737;59.466;18.036;2023-03-14T12:26:59;99061.69;;;6.22;75.48
19208;BME280;9737;59.466;18.036;2023-03-14T12:29:29;99047.53;;;6.23;75.40
19208;BME280;9737;59.466;18.036;2023-03-14T12:32:09;99002.03;;;6.08;75.60
19208;BME280;9737;59.466;18.036;2023-03-14T12:34:48;99012.97;;;6.15;75.66
19208;BME280;9737;59.466;18.036;2023-03-14T12:37:31;99032.16;;;6.17;75.43
19208;BME280;9737;59.466;18.036;2023-03-14T12:40:10;98992.31;;;6.09;75.46
19208;BME280;9737;59.466;18.036;2023-03-14T12:42:45;99055.31;;;6.25;75.68
19208;BME280;9737;59.466;18.036;2023-03-14T12:45:26;99116.69;;;6.39;75.42
19208;BME280;9737;59.466;18.036;2023-03-14T12:47:59;99107.91;;;6.39;75.79
19208;BME280;9737;59.466;18.036;2023-03-14T12:50:35;99145.25;;;6.45;75.37
19208;BME280;9737;59.466;18.036;2023-03-14T12:56:11;99139.97;;;6.45;75.54
19208;BME280;9737;59.466;18.036;2023-03-14T12:58:54;99068.16;;;6.29;75.71
19208;BME280;9737;59.466;18.036;2023-03-14T13:01:26;99093.25;;;6.35;75.78
19208;BME280;9737;59.466;18.036;2023-03-14T13:03:55;99088.81;;;6.35;75.08
19208;BME280;9737;59.466;18.036;2023-03-14T13:06:51;99115.72;;;6.40;75.54
19208;BME280;9737;59.466;18.036;2023-03-14T13:09:50;99146.69;;;6.49;74.98
19208;BME280;9737;59.466;18.036;2023-03-14T13:12:23;99192.31;;;6.63;74.98
19208;BME280;9737;59.466;18.036;2023-03-14T13:14:54;99236.44;;;6.73;75.02
19208;BME280;9737;59.466;18.036;2023-03-14T13:17:27;99081.84;;;6.34;74.92
19208;BME280;9737;59.466;18.036;2023-03-14T13:20:10;99050.88;;;6.25;75.00
19208;BME280;9737;59.466;18.036;2023-03-14T13:22:38;98970.47;;;6.07;75.57
19208;BME280;9737;59.466;18.036;2023-03-14T13:25:12;98869.72;;;5.79;74.61
19208;BME280;9737;59.466;18.036;2023-03-14T13:27:41;98795.59;;;5.60;75.13